MET'MAP v2.0
soon released !

Expected late october,
this new version will be
more efficient, smarter,
and hosted on a brand new
server x3 powerfull...
...and still free !


Not compatible ?
Try the mobile version !

LOG IN : | Subscribe | Disclaimer | Who is Orbifly ? |
ICAO code :

TAF - LTAZ Kapadokya - 02 Jun 2020 04:37 UTC - Data Source NOAA   


- Airport Elevation : 3100 ft
- IATA code : NAV
- No reported NOTAMs.


LTAZ - Kapadokya

Latest METAR recorded : 2015/08/11 07:50 LTAZ 110750Z VRB04KT CAVOK 29/15 Q1012
TAF TAF LTAZ
Valid from the 02 at 00:00 until the 03 at 00:00 UTC


012240Z 0200/0224 VRB02KT 9999 SCT040 BKN100
TEMPO 0208/0212 20015G25KT -TSRA FEW025CB BKN030
TEMPO 0212/0216 20015G25KT -TSRA FEW025CB BKN030
TEMPO 0216/0220 20015G25KT -TSRA FEW025CB BKN030

Source NOAA


MET'MAP, your aeronautical weather chart ! - Copyright ORBIFLY December 2007

Programming & Development : Alexandra Zaïnal
Co-Developer : Marc-Olivier Méhu
Technical & hardware support : Manuel Goepfert
Concept & Financing : Baudouin d'Aumeries